Time;durP1;ratioP1;P1;durP2;ratioP2;P2;SDS_P1;SDS_P2;PMS_P1;PMS_P2;Temp;Humidity;BMP_temperature;BMP_pressure;BME280_temperature;BME280_humidity;BME280_pressure;Samples;Min_cycle;Max_cycle;Signal;HPM_P1;HPM_P2
2023/08/21 00:00:14;;;;;;;8.07;3.00;;;19.20;93.10;;;;;;5016129;28;20513;-79
2023/08/21 00:02:40;;;;;;;8.70;3.05;;;19.10;93.70;;;;;;4988620;28;20034;-79
2023/08/21 00:05:06;;;;;;;6.88;3.08;;;19.20;93.90;;;;;;5016563;28;20045;-79
2023/08/21 00:07:31;;;;;;;8.48;2.70;;;19.30;93.50;;;;;;5003165;28;20032;-79
2023/08/21 00:09:57;;;;;;;10.13;2.95;;;19.30;93.40;;;;;;5015502;28;20029;-79
2023/08/21 00:12:22;;;;;;;7.32;3.40;;;19.20;93.80;;;;;;4999105;28;20045;-79
2023/08/21 00:14:48;;;;;;;7.40;3.05;;;19.10;93.90;;;;;;4987167;28;20421;-79
2023/08/21 00:17:13;;;;;;;7.93;2.92;;;19.00;94.30;;;;;;5013622;28;20038;-78
2023/08/21 00:19:39;;;;;;;7.25;3.50;;;18.90;94.40;;;;;;5001011;28;20034;-79
2023/08/21 00:22:05;;;;;;;4.78;2.97;;;19.00;94.20;;;;;;5017280;28;20033;-79
2023/08/21 00:24:30;;;;;;;7.28;3.30;;;19.00;94.70;;;;;;5002785;28;20117;-78
2023/08/21 00:26:56;;;;;;;3.80;2.67;;;19.00;96.20;;;;;;5017048;28;20030;-78
2023/08/21 00:29:21;;;;;;;8.80;2.55;;;19.00;95.20;;;;;;5002545;28;20033;-78
2023/08/21 00:31:47;;;;;;;8.15;2.72;;;18.80;96.90;;;;;;4989786;28;20029;-78
2023/08/21 00:34:12;;;;;;;6.25;3.03;;;18.80;96.00;;;;;;4985837;28;20067;-79
2023/08/21 00:36:38;;;;;;;4.25;2.65;;;18.80;95.30;;;;;;5015654;28;20034;-79
2023/08/21 00:39:04;;;;;;;5.60;3.10;;;18.80;95.00;;;;;;4989118;28;20478;-79
2023/08/21 00:41:29;;;;;;;5.88;2.63;;;18.90;94.80;;;;;;4981567;28;20092;-79
2023/08/21 00:43:55;;;;;;;5.75;2.65;;;18.90;94.20;;;;;;5019669;28;20036;-79
2023/08/21 00:46:20;;;;;;;8.38;2.60;;;18.90;94.40;;;;;;5017028;28;20091;-78
2023/08/21 00:48:46;;;;;;;9.27;3.10;;;18.90;95.00;;;;;;5004528;28;20029;-78
2023/08/21 00:51:12;;;;;;;6.45;2.67;;;18.80;94.30;;;;;;5018494;28;20434;-78
2023/08/21 00:53:38;;;;;;;7.22;2.75;;;18.80;96.00;;;;;;4991284;28;20040;-79
2023/08/21 00:56:03;;;;;;;6.95;3.15;;;18.60;95.80;;;;;;5005455;28;20151;-79
2023/08/21 00:58:29;;;;;;;6.88;2.80;;;18.60;96.40;;;;;;4988054;28;20132;-79
2023/08/21 01:00:55;;;;;;;8.68;2.80;;;18.60;96.00;;;;;;5020842;28;20030;-79
2023/08/21 01:03:20;;;;;;;6.30;2.92;;;18.60;95.10;;;;;;5017379;28;20029;-78
2023/08/21 01:05:46;;;;;;;8.38;3.25;;;18.60;94.90;;;;;;5021980;28;20112;-78
2023/08/21 01:08:13;;;;;;;6.65;2.72;;;18.50;96.50;;;;;;5016662;28;20038;-78
2023/08/21 01:11:11;;;;;;;6.60;2.88;;;18.40;96.70;;;;;;5009121;28;20041;-78
2023/08/21 01:13:56;;;;;;;8.93;2.95;;;18.40;96.00;;;;;;5003403;28;20489;-78
2023/08/21 01:16:22;;;;;;;8.33;2.50;;;18.50;95.30;;;;;;5021275;28;20037;-78
2023/08/21 01:18:48;;;;;;;4.05;2.17;;;18.40;96.00;;;;;;5007825;28;20056;-78
2023/08/21 01:21:14;;;;;;;5.18;2.47;;;18.30;96.50;;;;;;4989512;28;20042;-79
2023/08/21 01:23:41;;;;;;;4.97;2.38;;;18.20;96.10;;;;;;4992000;28;20118;-77
2023/08/21 01:26:07;;;;;;;7.30;3.08;;;18.30;95.70;;;;;;5006237;28;20079;-78
2023/08/21 01:28:33;;;;;;;9.27;2.53;;;18.30;96.00;;;;;;5000102;28;20034;-80
2023/08/21 01:31:13;;;;;;;7.85;3.03;;;18.20;95.80;;;;;;4992226;28;20515;-80
2023/08/21 01:33:43;;;;;;;6.03;3.00;;;18.20;96.70;;;;;;5006415;28;20057;-80
2023/08/21 01:36:08;;;;;;;3.78;2.25;;;18.10;96.70;;;;;;5016833;28;20046;-78
2023/08/21 01:38:35;;;;;;;11.38;2.97;;;18.10;97.20;;;;;;4998912;28;20045;-78
2023/08/21 01:41:01;;;;;;;6.95;3.15;;;18.10;96.10;;;;;;5018496;28;20067;-80
2023/08/21 01:43:27;;;;;;;5.25;1.88;;;18.10;96.00;;;;;;5021122;28;20034;-80
2023/08/21 01:45:53;;;;;;;7.90;2.50;;;18.10;95.40;;;;;;5018412;28;20030;-80
2023/08/21 01:48:18;;;;;;;5.40;2.28;;;18.10;95.50;;;;;;5020381;28;20585;-79
2023/08/21 01:50:44;;;;;;;2.70;1.50;;;18.10;95.40;;;;;;5004315;28;20034;-79
2023/08/21 01:53:09;;;;;;;4.82;1.70;;;18.20;95.60;;;;;;5005296;28;20121;-79
2023/08/21 01:55:35;;;;;;;3.92;2.00;;;18.20;95.10;;;;;;5022010;28;20037;-79
2023/08/21 01:58:00;;;;;;;6.10;2.15;;;18.20;95.00;;;;;;4986970;28;20034;-78
2023/08/21 02:00:27;;;;;;;4.78;2.10;;;18.20;95.40;;;;;;5017801;28;20125;-79
2023/08/21 02:02:53;;;;;;;5.25;2.10;;;18.10;95.10;;;;;;5022301;28;20133;-78
2023/08/21 02:05:19;;;;;;;2.58;1.63;;;18.10;95.10;;;;;;5000435;28;20461;-79
2023/08/21 02:07:45;;;;;;;7.40;2.60;;;17.90;95.10;;;;;;4990072;28;20115;-79
2023/08/21 02:10:11;;;;;;;8.43;2.67;;;17.90;95.10;;;;;;5003035;28;20345;-79
2023/08/21 02:12:37;;;;;;;3.75;2.40;;;17.90;95.40;;;;;;4996943;28;20033;-79
2023/08/21 02:15:02;;;;;;;7.45;3.13;;;17.80;95.50;;;;;;5006928;28;20492;-79
2023/08/21 02:17:28;;;;;;;4.78;2.97;;;17.70;96.10;;;;;;4990801;28;20455;-78
2023/08/21 02:19:53;;;;;;;7.63;2.58;;;17.60;96.80;;;;;;5018748;28;20457;-80
2023/08/21 02:22:19;;;;;;;9.73;2.88;;;17.60;95.90;;;;;;4987539;28;20438;-78
2023/08/21 02:24:44;;;;;;;10.32;2.83;;;17.60;95.70;;;;;;5021533;28;20061;-78
2023/08/21 02:27:10;;;;;;;8.43;2.78;;;17.50;96.00;;;;;;5001233;28;20033;-78
2023/08/21 02:29:35;;;;;;;5.80;2.78;;;17.60;95.70;;;;;;4996907;28;20025;-78
2023/08/21 02:32:01;;;;;;;5.32;3.40;;;17.50;96.80;;;;;;5009062;28;20452;-79
2023/08/21 02:34:27;;;;;;;10.45;3.30;;;17.50;96.10;;;;;;5004324;28;20018;-79
2023/08/21 02:36:52;;;;;;;2.92;2.30;;;17.50;95.80;;;;;;5017849;28;20680;-78
2023/08/21 02:39:18;;;;;;;8.05;3.42;;;17.60;95.50;;;;;;5004469;28;20030;-78
2023/08/21 02:41:43;;;;;;;6.68;2.90;;;17.50;95.40;;;;;;5000575;28;20038;-80
2023/08/21 02:44:09;;;;;;;5.80;2.80;;;17.40;95.50;;;;;;5003488;28;20329;-80
2023/08/21 02:46:36;;;;;;;6.05;3.35;;;17.40;95.50;;;;;;4990616;28;20072;-80
2023/08/21 02:49:01;;;;;;;6.68;2.88;;;17.10;96.00;;;;;;4991816;28;20433;-80
2023/08/21 02:51:27;;;;;;;7.82;3.80;;;17.00;96.50;;;;;;4997616;28;20034;-79
2023/08/21 02:53:53;;;;;;;6.60;3.00;;;16.80;97.00;;;;;;5020120;28;20033;-79
2023/08/21 02:56:18;;;;;;;3.75;2.55;;;16.70;98.60;;;;;;4990051;28;20033;-80
2023/08/21 02:58:44;;;;;;;7.72;2.67;;;16.80;99.80;;;;;;4998979;28;20083;-79
2023/08/21 03:01:09;;;;;;;5.00;3.15;;;16.80;99.90;;;;;;5017206;28;20091;-79
2023/08/21 03:03:35;;;;;;;11.00;3.30;;;16.90;99.90;;;;;;4986650;28;20057;-80
2023/08/21 03:06:01;;;;;;;7.47;3.67;;;16.80;99.90;;;;;;5016060;28;20493;-80
2023/08/21 03:08:27;;;;;;;7.47;3.58;;;16.80;99.90;;;;;;4991657;28;20053;-79
2023/08/21 03:10:52;;;;;;;4.68;3.03;;;16.90;99.90;;;;;;5003526;28;20554;-80
2023/08/21 03:13:18;;;;;;;6.22;3.42;;;17.00;99.90;;;;;;4990890;28;20044;-80
2023/08/21 03:15:43;;;;;;;7.45;3.47;;;17.00;99.90;;;;;;5001834;28;20041;-80
2023/08/21 03:18:09;;;;;;;10.50;4.00;;;16.90;99.90;;;;;;5000357;28;20033;-80
2023/08/21 03:20:35;;;;;;;9.40;3.20;;;16.80;99.90;;;;;;5017047;28;20115;-80
2023/08/21 03:23:00;;;;;;;5.88;3.13;;;16.80;99.90;;;;;;4999953;28;20046;-78
2023/08/21 03:25:27;;;;;;;9.98;3.92;;;16.80;99.90;;;;;;4997788;28;20033;-78
2023/08/21 03:27:52;;;;;;;10.65;3.85;;;16.80;99.90;;;;;;5003779;28;20037;-79
2023/08/21 03:30:18;;;;;;;8.32;4.38;;;16.90;99.90;;;;;;4999734;28;20053;-79
2023/08/21 03:32:44;;;;;;;5.75;3.42;;;16.90;99.90;;;;;;5014412;28;20109;-79
2023/08/21 03:35:09;;;;;;;5.22;3.85;;;16.90;99.90;;;;;;4983219;28;20048;-79
2023/08/21 03:37:35;;;;;;;3.90;2.58;;;17.00;99.90;;;;;;5020779;28;20037;-78
2023/08/21 03:40:02;;;;;;;5.53;2.35;;;17.00;99.90;;;;;;4980938;28;20030;-79
2023/08/21 03:42:28;;;;;;;6.38;2.78;;;17.10;99.90;;;;;;4999183;28;20120;-78
2023/08/21 03:44:54;;;;;;;8.32;3.17;;;16.90;99.90;;;;;;4997097;28;20120;-79
2023/08/21 03:47:19;;;;;;;5.90;3.22;;;16.90;99.90;;;;;;4993327;28;20037;-78
2023/08/21 03:49:48;;;;;;;8.10;3.85;;;16.80;99.90;;;;;;5000992;28;20112;-79
2023/08/21 03:52:13;;;;;;;7.28;3.00;;;16.70;99.90;;;;;;4996462;28;20030;-79
2023/08/21 03:54:39;;;;;;;3.80;2.22;;;16.80;99.90;;;;;;5011247;28;20048;-79
2023/08/21 03:57:04;;;;;;;4.60;3.20;;;16.90;99.90;;;;;;5015381;28;20038;-79
2023/08/21 03:59:30;;;;;;;3.75;2.40;;;17.10;99.90;;;;;;4990037;28;20040;-79
2023/08/21 04:01:55;;;;;;;4.18;2.60;;;17.00;99.90;;;;;;5002536;28;20026;-79
2023/08/21 04:04:21;;;;;;;3.35;2.25;;;17.00;99.90;;;;;;5015773;28;20013;-78
2023/08/21 04:06:46;;;;;;;3.97;2.40;;;17.00;99.90;;;;;;4999363;28;20537;-79
2023/08/21 04:09:12;;;;;;;6.78;3.60;;;17.00;99.90;;;;;;5002334;28;20408;-78
2023/08/21 04:11:38;;;;;;;7.18;3.60;;;16.90;99.90;;;;;;4985635;28;20596;-78
2023/08/21 04:14:04;;;;;;;8.77;4.05;;;16.70;99.90;;;;;;4997341;28;20052;-78
2023/08/21 04:16:30;;;;;;;11.15;4.13;;;16.50;99.90;;;;;;5002012;28;20030;-78
2023/08/21 04:18:56;;;;;;;9.23;4.20;;;16.50;99.90;;;;;;4989100;28;20580;-77
2023/08/21 04:21:21;;;;;;;7.40;3.90;;;16.60;99.90;;;;;;5016649;28;20062;-79
2023/08/21 04:23:47;;;;;;;10.43;4.53;;;16.60;99.90;;;;;;4982243;28;20457;-79
2023/08/21 04:26:13;;;;;;;5.45;3.30;;;16.50;99.90;;;;;;5016194;28;20057;-79
2023/08/21 04:28:38;;;;;;;5.53;2.60;;;16.60;99.90;;;;;;5018568;28;20026;-78
2023/08/21 04:31:07;;;;;;;6.93;3.42;;;16.80;99.90;;;;;;4989131;28;20033;-78
2023/08/21 04:33:32;;;;;;;9.55;3.42;;;16.80;99.90;;;;;;4984556;28;20034;-79
2023/08/21 04:35:59;;;;;;;5.07;2.28;;;16.80;99.90;;;;;;5003618;28;20128;-79
2023/08/21 04:38:24;;;;;;;3.53;2.60;;;16.90;99.90;;;;;;5015827;28;20057;-79
2023/08/21 04:40:50;;;;;;;6.18;3.30;;;16.90;99.90;;;;;;5015454;28;20497;-78
2023/08/21 04:43:15;;;;;;;5.70;3.40;;;16.80;99.90;;;;;;5017665;28;20116;-78
2023/08/21 04:45:49;;;;;;;8.40;3.65;;;16.70;99.90;;;;;;5002714;28;20037;-79
2023/08/21 04:48:14;;;;;;;5.82;3.70;;;16.60;99.90;;;;;;5000910;28;20117;-79
2023/08/21 04:50:40;;;;;;;5.18;3.88;;;16.60;99.90;;;;;;5014534;28;20508;-79
2023/08/21 04:53:06;;;;;;;6.55;3.60;;;16.80;99.90;;;;;;4989533;28;20025;-78
2023/08/21 04:55:31;;;;;;;6.18;3.60;;;16.70;99.90;;;;;;5015490;28;20041;-79
2023/08/21 04:57:57;;;;;;;8.85;4.22;;;16.80;99.90;;;;;;5002614;28;20041;-79
2023/08/21 05:00:22;;;;;;;9.57;4.40;;;16.80;99.90;;;;;;4998615;28;20508;-79
2023/08/21 05:02:48;;;;;;;8.38;5.03;;;16.70;99.90;;;;;;5001647;28;20030;-79
2023/08/21 05:05:13;;;;;;;7.30;4.28;;;16.60;99.90;;;;;;4994373;28;20037;-79
2023/08/21 05:07:39;;;;;;;9.52;4.65;;;16.60;99.90;;;;;;5010615;28;20540;-80
2023/08/21 05:10:05;;;;;;;9.90;4.57;;;16.60;99.90;;;;;;5002756;28;20034;-79
2023/08/21 05:12:31;;;;;;;9.68;5.07;;;16.70;99.90;;;;;;5016027;28;20489;-78
2023/08/21 05:14:56;;;;;;;5.68;3.70;;;16.70;99.90;;;;;;5002909;28;20026;-78
2023/08/21 05:17:23;;;;;;;5.70;2.17;;;16.80;99.90;;;;;;5014216;28;20033;-78
2023/08/21 05:19:49;;;;;;;5.82;3.75;;;17.00;99.90;;;;;;5001533;28;20036;-78
2023/08/21 05:22:14;;;;;;;7.43;4.65;;;17.10;99.90;;;;;;5014354;28;20410;-78
2023/08/21 05:24:40;;;;;;;7.20;4.80;;;17.10;99.90;;;;;;4989381;28;20512;-79
2023/08/21 05:27:05;;;;;;;10.73;4.63;;;17.00;99.90;;;;;;4987382;28;20499;-79
2023/08/21 05:29:31;;;;;;;9.40;3.60;;;17.20;99.90;;;;;;5018861;28;20463;-79
2023/08/21 05:31:56;;;;;;;7.72;4.50;;;17.20;99.90;;;;;;4990545;28;20099;-80
2023/08/21 05:34:22;;;;;;;8.80;4.78;;;17.30;99.90;;;;;;5002281;28;20497;-80
2023/08/21 05:36:48;;;;;;;7.55;4.18;;;17.30;99.90;;;;;;5018205;28;20398;-79
2023/08/21 05:39:13;;;;;;;7.45;4.43;;;17.30;99.90;;;;;;4998477;28;20041;-79
2023/08/21 05:41:39;;;;;;;8.73;4.03;;;17.30;99.90;;;;;;5004009;28;20041;-79
2023/08/21 05:44:04;;;;;;;11.23;4.68;;;17.40;99.90;;;;;;5018988;28;20036;-79
2023/08/21 05:46:30;;;;;;;11.88;4.72;;;17.40;99.90;;;;;;4982643;28;20026;-79
2023/08/21 05:48:55;;;;;;;11.82;5.72;;;17.50;99.90;;;;;;5015797;28;20053;-79
2023/08/21 05:51:21;;;;;;;9.57;4.50;;;17.70;99.90;;;;;;5012360;28;20034;-79
2023/08/21 05:53:47;;;;;;;13.02;6.18;;;17.80;99.90;;;;;;5006344;28;20094;-79
2023/08/21 05:56:13;;;;;;;9.02;4.20;;;17.90;99.90;;;;;;5003177;28;20073;-79
2023/08/21 05:58:38;;;;;;;11.32;5.38;;;17.90;99.90;;;;;;5018779;28;20069;-79
2023/08/21 06:01:04;;;;;;;11.85;5.30;;;18.20;99.90;;;;;;4990361;28;20510;-79
2023/08/21 06:03:29;;;;;;;10.05;5.20;;;18.20;99.90;;;;;;5014419;28;20034;-79
2023/08/21 06:05:55;;;;;;;12.02;5.40;;;18.20;99.90;;;;;;4998682;28;20037;-79
2023/08/21 06:08:23;;;;;;;8.90;5.90;;;18.20;99.90;;;;;;5002080;28;20065;-79
2023/08/21 06:10:52;;;;;;;12.73;5.50;;;18.20;99.90;;;;;;5017347;28;20034;-79
2023/08/21 06:13:19;;;;;;;10.63;5.68;;;18.10;99.90;;;;;;4987983;28;20030;-77
2023/08/21 06:15:47;;;;;;;12.68;6.97;;;18.20;99.90;;;;;;5004246;28;20033;-78
2023/08/21 06:18:14;;;;;;;16.55;6.97;;;18.30;99.90;;;;;;5003086;28;20044;-77
2023/08/21 06:20:42;;;;;;;10.77;5.85;;;18.30;99.90;;;;;;5020587;28;20037;-79
2023/08/21 06:23:08;;;;;;;12.02;5.82;;;18.40;99.90;;;;;;5019054;28;20060;-80
2023/08/21 06:25:33;;;;;;;18.20;7.15;;;18.50;99.90;;;;;;5003172;28;20072;-80
2023/08/21 06:27:59;;;;;;;11.32;5.95;;;18.60;99.90;;;;;;4990048;28;20025;-80
2023/08/21 06:30:25;;;;;;;13.40;6.20;;;18.70;99.90;;;;;;5014920;28;20083;-78
2023/08/21 06:32:51;;;;;;;12.65;4.75;;;18.80;99.90;;;;;;5017132;28;20034;-78
2023/08/21 06:35:17;;;;;;;4.72;2.40;;;19.00;99.90;;;;;;5016842;28;20353;-80
2023/08/21 06:37:43;;;;;;;7.30;2.90;;;19.20;99.90;;;;;;4982131;28;20397;-78
2023/08/21 06:40:09;;;;;;;9.00;4.10;;;19.40;99.90;;;;;;5001704;28;20092;-78
2023/08/21 06:42:34;;;;;;;8.95;4.68;;;19.60;99.90;;;;;;5018296;28;20045;-77
2023/08/21 06:45:00;;;;;;;13.80;5.25;;;19.80;99.90;;;;;;5002973;28;20038;-77
2023/08/21 06:47:25;;;;;;;11.57;4.05;;;19.90;99.90;;;;;;5001173;28;20125;-77
2023/08/21 06:49:51;;;;;;;7.50;3.78;;;20.10;99.90;;;;;;4999541;28;20068;-77
2023/08/21 06:52:17;;;;;;;4.47;3.45;;;20.20;99.90;;;;;;5008043;28;20033;-77
2023/08/21 06:54:43;;;;;;;8.63;3.75;;;20.40;99.90;;;;;;4999380;28;20397;-78
2023/08/21 06:57:08;;;;;;;7.43;3.42;;;20.50;99.90;;;;;;5015884;28;20275;-77
2023/08/21 06:59:35;;;;;;;8.57;3.33;;;20.70;99.90;;;;;;4998810;28;20441;-77
2023/08/21 07:02:02;;;;;;;7.57;3.10;;;20.90;99.90;;;;;;5000624;28;20681;-77
2023/08/21 07:04:28;;;;;;;12.95;4.28;;;21.00;99.90;;;;;;5019404;28;20633;-78
2023/08/21 07:06:53;;;;;;;6.15;3.17;;;21.20;99.90;;;;;;5001041;28;20113;-77
2023/08/21 07:09:19;;;;;;;5.13;3.45;;;21.50;99.90;;;;;;5013884;28;20041;-79
2023/08/21 07:11:44;;;;;;;5.28;2.50;;;21.70;99.90;;;;;;5012543;28;20038;-77
2023/08/21 07:14:13;;;;;;;8.95;2.63;;;21.90;99.90;;;;;;5014470;28;20418;-77
2023/08/21 07:16:40;;;;;;;12.07;2.60;;;22.10;99.90;;;;;;4991229;28;20041;-77
2023/08/21 07:19:05;;;;;;;6.00;2.67;;;22.20;99.90;;;;;;4985221;28;20030;-78
2023/08/21 07:21:31;;;;;;;4.60;2.40;;;22.50;99.90;;;;;;5013990;28;20052;-77
2023/08/21 07:23:56;;;;;;;5.47;2.40;;;22.70;99.90;;;;;;4995426;28;20049;-79
2023/08/21 07:26:22;;;;;;;5.97;2.20;;;22.70;99.90;;;;;;5015604;28;20042;-78
2023/08/21 07:28:48;;;;;;;10.82;3.03;;;22.90;99.90;;;;;;4988640;28;20404;-78
2023/08/21 07:31:13;;;;;;;3.63;1.95;;;23.10;99.90;;;;;;4999528;28;20069;-79
2023/08/21 07:33:39;;;;;;;7.45;2.42;;;23.30;99.90;;;;;;5018254;28;20033;-78
2023/08/21 07:36:05;;;;;;;6.65;2.78;;;23.40;99.90;;;;;;5015770;28;20037;-79
2023/08/21 07:38:31;;;;;;;4.95;2.20;;;23.60;99.90;;;;;;4978251;28;20087;-79
2023/08/21 07:41:07;;;;;;;4.80;2.28;;;23.70;99.90;;;;;;5020143;28;20120;-79
2023/08/21 07:43:33;;;;;;;9.75;2.65;;;24.00;99.90;;;;;;5012010;28;20033;-79
2023/08/21 07:46:02;;;;;;;7.65;2.50;;;24.20;99.90;;;;;;5013940;28;20026;-79
2023/08/21 07:48:28;;;;;;;5.32;2.53;;;24.40;99.90;;;;;;4987079;28;20514;-79
2023/08/21 07:50:53;;;;;;;5.90;2.17;;;24.40;99.90;;;;;;5013986;28;20064;-78
2023/08/21 07:53:19;;;;;;;7.47;2.65;;;24.50;99.90;;;;;;4998752;28;20044;-79
2023/08/21 07:55:46;;;;;;;7.82;2.33;;;24.80;99.90;;;;;;4995832;28;20030;-79
2023/08/21 07:58:11;;;;;;;7.90;2.40;;;24.80;99.90;;;;;;5002569;28;20065;-78
2023/08/21 08:00:38;;;;;;;9.25;2.22;;;24.80;99.90;;;;;;4998129;28;20052;-79
2023/08/21 08:03:05;;;;;;;6.47;1.98;;;24.90;99.90;;;;;;5001387;28;20033;-79
2023/08/21 08:05:31;;;;;;;6.85;2.40;;;24.90;99.90;;;;;;5015886;28;20042;-79
2023/08/21 08:07:57;;;;;;;6.28;2.17;;;25.10;99.90;;;;;;5002907;28;20034;-78
2023/08/21 08:10:23;;;;;;;3.75;2.30;;;25.20;99.90;;;;;;4995879;28;20581;-79
2023/08/21 08:12:49;;;;;;;9.70;2.75;;;25.40;99.90;;;;;;4985151;28;20739;-79
2023/08/21 08:15:14;;;;;;;5.93;2.60;;;25.60;99.90;;;;;;5017332;28;20045;-78
2023/08/21 08:17:40;;;;;;;6.20;1.85;;;25.70;99.90;;;;;;5018090;28;20520;-79
2023/08/21 08:20:06;;;;;;;8.65;2.83;;;25.80;99.60;;;;;;4998277;28;20099;-79
2023/08/21 08:22:31;;;;;;;7.10;2.55;;;26.00;99.90;;;;;;5016338;28;20040;-80
2023/08/21 08:24:57;;;;;;;4.35;1.45;;;26.10;99.90;;;;;;5000648;28;20034;-79
2023/08/21 08:27:22;;;;;;;5.40;2.15;;;26.00;99.10;;;;;;5015760;28;20136;-78
2023/08/21 08:29:49;;;;;;;9.65;2.55;;;26.00;99.90;;;;;;5014963;28;20113;-79
2023/08/21 08:32:14;;;;;;;6.63;2.60;;;26.20;99.80;;;;;;4995466;28;20425;-79
2023/08/21 08:34:40;;;;;;;11.10;2.45;;;26.40;98.50;;;;;;5000374;28;20084;-78
2023/08/21 08:37:06;;;;;;;8.27;2.55;;;26.60;98.30;;;;;;5015658;28;20153;-79
2023/08/21 08:39:31;;;;;;;5.18;2.20;;;26.60;98.30;;;;;;4983612;28;20500;-79
2023/08/21 08:41:59;;;;;;;6.75;2.13;;;26.60;97.60;;;;;;5018831;28;20034;-79
2023/08/21 08:44:28;;;;;;;6.38;2.22;;;26.70;97.40;;;;;;5014800;28;20117;-78
2023/08/21 08:46:53;;;;;;;6.68;2.55;;;26.80;95.70;;;;;;4980013;28;20140;-79
2023/08/21 08:49:21;;;;;;;7.47;2.50;;;26.90;96.60;;;;;;4994864;28;20120;-79
2023/08/21 08:51:48;;;;;;;3.17;2.08;;;26.90;96.50;;;;;;4997677;28;20477;-79
2023/08/21 08:54:14;;;;;;;7.28;2.60;;;26.90;95.10;;;;;;5015188;28;20834;-78
2023/08/21 08:56:39;;;;;;;6.70;1.92;;;26.90;96.30;;;;;;5013718;28;20041;-78
2023/08/21 08:59:07;;;;;;;9.93;2.55;;;27.00;96.40;;;;;;4987102;28;20037;-78
2023/08/21 09:01:33;;;;;;;7.75;2.35;;;27.00;94.60;;;;;;5002942;28;20033;-79
2023/08/21 09:03:58;;;;;;;8.45;2.50;;;27.00;95.40;;;;;;5000637;28;20100;-78
2023/08/21 09:06:24;;;;;;;7.90;2.17;;;27.10;94.70;;;;;;5018665;28;20041;-78
2023/08/21 09:08:56;;;;;;;7.13;2.40;;;27.20;95.30;;;;;;5000709;28;20037;-78
2023/08/21 09:11:25;;;;;;;;;;;27.30;94.80;;;;;;5017092;28;20056;-79
2023/08/21 09:13:51;;;;;;;6.55;2.22;;;27.40;95.00;;;;;;5018547;28;19913;-79
2023/08/21 09:16:18;;;;;;;5.30;2.00;;;27.40;93.10;;;;;;5009810;28;20041;-80
2023/08/21 09:19:09;;;;;;;6.15;2.33;;;27.50;93.80;;;;;;4993719;28;20108;-81
2023/08/21 09:21:34;;;;;;;11.23;2.53;;;27.50;92.90;;;;;;5005373;28;20434;-78
2023/08/21 09:24:02;;;;;;;9.05;2.33;;;27.60;92.90;;;;;;5004353;28;20160;-78
2023/08/21 09:26:30;;;;;;;4.30;2.58;;;27.70;92.60;;;;;;5014247;28;20037;-78
2023/08/21 09:29:01;;;;;;;9.65;2.35;;;27.70;93.90;;;;;;4988864;28;20037;-79
2023/08/21 09:31:31;;;;;;;10.88;2.92;;;27.80;92.70;;;;;;5001552;28;20567;-79
2023/08/21 09:34:06;;;;;;;6.47;2.72;;;27.80;92.10;;;;;;5015443;28;20056;-78
2023/08/21 09:36:32;;;;;;;5.38;2.15;;;27.80;92.80;;;;;;5017749;28;20033;-78
2023/08/21 09:38:58;;;;;;;7.70;2.55;;;27.90;93.00;;;;;;5002461;28;20571;-79
2023/08/21 09:41:24;;;;;;;10.52;2.35;;;28.10;93.10;;;;;;4998603;28;20038;-78
2023/08/21 09:43:49;;;;;;;4.72;1.85;;;28.20;92.40;;;;;;5001562;28;20512;-79
2023/08/21 09:46:19;;;;;;;7.47;2.65;;;28.20;93.10;;;;;;5004522;28;20052;-78
2023/08/21 09:48:47;;;;;;;6.18;1.98;;;28.30;92.50;;;;;;5003755;28;20033;-78
2023/08/21 09:51:13;;;;;;;4.35;2.10;;;28.40;92.40;;;;;;4990332;28;20030;-78
2023/08/21 09:53:39;;;;;;;7.15;2.72;;;28.50;93.00;;;;;;4991417;28;20834;-78
2023/08/21 09:56:05;;;;;;;5.15;2.60;;;28.80;93.20;;;;;;4988853;28;20099;-79
2023/08/21 09:58:31;;;;;;;8.40;2.92;;;28.90;92.60;;;;;;5019335;28;20791;-79
2023/08/21 10:00:58;;;;;;;8.85;2.65;;;29.10;91.80;;;;;;5003085;28;20022;-79
2023/08/21 10:03:23;;;;;;;5.15;3.00;;;29.20;91.80;;;;;;4986776;28;20038;-79
2023/08/21 10:05:49;;;;;;;7.93;3.40;;;29.20;91.80;;;;;;5016285;28;20486;-79
2023/08/21 10:08:16;;;;;;;7.50;3.00;;;29.50;91.70;;;;;;4999490;28;20038;-79
2023/08/21 10:10:43;;;;;;;3.00;1.80;;;29.60;91.40;;;;;;5017580;28;20087;-80
2023/08/21 10:13:09;;;;;;;10.80;4.05;;;29.50;92.00;;;;;;4981881;28;20113;-79
2023/08/21 10:15:35;;;;;;;12.48;4.35;;;29.60;91.40;;;;;;5017204;28;20057;-80
2023/08/21 10:18:20;;;;;;;7.25;3.55;;;29.80;90.50;;;;;;5001071;28;20034;-81
2023/08/21 10:20:46;;;;;;;9.70;3.05;;;29.90;91.40;;;;;;5001798;28;20044;-81
2023/08/21 10:23:29;;;;;;;4.68;2.00;;;30.00;90.80;;;;;;5000817;28;20038;-81
2023/08/21 10:25:58;;;;;;;7.22;2.78;;;30.00;91.00;;;;;;5001646;28;20040;-82
2023/08/21 10:28:24;;;;;;;5.63;2.33;;;30.20;90.60;;;;;;5016333;28;20022;-82
2023/08/21 10:30:49;;;;;;;3.70;2.38;;;30.40;91.40;;;;;;5018586;28;20791;-82
2023/08/21 10:33:15;;;;;;;8.80;3.10;;;30.40;91.30;;;;;;5004862;28;20026;-83
2023/08/21 10:35:41;;;;;;;7.70;2.67;;;30.60;89.60;;;;;;5006454;28;20092;-84
2023/08/21 10:38:15;;;;;;;7.05;2.22;;;30.70;89.50;;;;;;5005514;28;20371;-83
2023/08/21 10:41:00;;;;;;;9.00;2.38;;;30.90;90.30;;;;;;5006477;28;20077;-84
2023/08/21 10:43:43;;;;;;;5.60;2.30;;;31.10;88.00;;;;;;5018308;28;20033;-84
2023/08/21 10:46:12;;;;;;;7.22;2.55;;;31.30;87.10;;;;;;5018743;28;20030;-84
2023/08/21 10:48:38;;;;;;;8.63;2.90;;;31.60;86.60;;;;;;5001754;28;20033;-84
2023/08/21 10:51:04;;;;;;;3.67;1.80;;;31.60;84.70;;;;;;4988127;28;20041;-85
2023/08/21 10:53:33;;;;;;;5.40;2.35;;;31.70;86.80;;;;;;4998242;28;20049;-84
2023/08/21 10:56:03;;;;;;;3.53;1.75;;;31.90;84.70;;;;;;4973744;28;20053;-84
2023/08/21 10:58:28;;;;;;;15.10;2.58;;;32.10;85.80;;;;;;4997411;28;20042;-83
2023/08/21 11:00:58;;;;;;;5.65;2.00;;;32.20;83.90;;;;;;5016500;28;20036;-84
2023/08/21 11:03:23;;;;;;;8.18;2.47;;;32.40;83.90;;;;;;5002116;28;20554;-83
2023/08/21 11:06:02;;;;;;;4.68;2.33;;;32.50;82.60;;;;;;5005273;28;20111;-84
2023/08/21 11:08:28;;;;;;;6.70;2.33;;;32.50;84.80;;;;;;5014369;28;20494;-85
2023/08/21 11:10:54;;;;;;;7.40;2.42;;;32.60;83.50;;;;;;5018076;28;20044;-85
2023/08/21 11:13:19;;;;;;;7.85;2.10;;;32.60;82.80;;;;;;5023149;28;20139;-85
2023/08/21 11:15:45;;;;;;;6.55;2.45;;;32.60;82.30;;;;;;4990409;28;21014;-86
2023/08/21 11:18:11;;;;;;;6.38;2.67;;;32.60;82.60;;;;;;5000149;28;20723;-85
2023/08/21 11:20:36;;;;;;;8.50;3.20;;;32.80;80.20;;;;;;5002617;28;20034;-85
2023/08/21 11:23:06;;;;;;;6.88;2.90;;;32.60;79.00;;;;;;4989871;28;20259;-84
2023/08/21 11:25:32;;;;;;;3.70;2.20;;;32.60;80.30;;;;;;4990560;28;20033;-85
2023/08/21 11:27:58;;;;;;;7.63;2.97;;;32.50;79.40;;;;;;5005358;28;20030;-85
2023/08/21 11:30:24;;;;;;;4.10;2.08;;;32.50;79.80;;;;;;4991654;28;20037;-85
2023/08/21 11:33:15;;;;;;;5.38;2.25;;;32.60;80.20;;;;;;5004430;28;20120;-85
2023/08/21 11:35:41;;;;;;;3.85;2.38;;;32.60;80.50;;;;;;5003751;28;20057;-84
2023/08/21 11:38:14;;;;;;;10.38;2.53;;;32.60;80.20;;;;;;5018590;28;20050;-85
2023/08/21 11:40:39;;;;;;;7.05;2.42;;;32.70;76.50;;;;;;4991309;28;20065;-84
2023/08/21 11:43:06;;;;;;;5.35;1.92;;;32.70;78.60;;;;;;4989972;28;20486;-85
2023/08/21 11:45:32;;;;;;;7.28;2.75;;;32.70;78.80;;;;;;4987399;28;20025;-84
2023/08/21 11:47:57;;;;;;;5.90;2.60;;;32.70;77.40;;;;;;5001271;28;20030;-83
2023/08/21 11:50:23;;;;;;;3.00;2.05;;;32.70;76.60;;;;;;4988719;28;20474;-83
2023/08/21 11:52:55;;;;;;;6.10;2.08;;;32.70;76.30;;;;;;5002015;28;20033;-84
2023/08/21 11:55:22;;;;;;;3.50;1.85;;;32.80;77.20;;;;;;4994303;28;20508;-84
2023/08/21 11:57:51;;;;;;;5.28;2.40;;;32.80;76.90;;;;;;5015517;28;20046;-84
2023/08/21 12:00:22;;;;;;;4.72;1.73;;;32.80;73.50;;;;;;4993240;28;20409;-84
2023/08/21 12:03:00;;;;;;;11.90;2.53;;;32.70;77.10;;;;;;5020148;28;20675;-84
2023/08/21 12:05:29;;;;;;;5.07;2.30;;;32.80;76.60;;;;;;5014859;28;20159;-84
2023/08/21 12:07:54;;;;;;;8.27;2.33;;;32.80;75.30;;;;;;4988193;28;20038;-84
2023/08/21 12:10:27;;;;;;;6.13;2.45;;;32.90;76.10;;;;;;4999477;28;20042;-83
2023/08/21 12:12:53;;;;;;;8.30;2.53;;;33.10;75.00;;;;;;5003832;28;20401;-84
2023/08/21 12:15:18;;;;;;;7.75;2.65;;;33.30;73.10;;;;;;4989784;28;20030;-84
2023/08/21 12:17:44;;;;;;;6.55;2.05;;;33.30;73.60;;;;;;5014726;28;20586;-82
2023/08/21 12:20:13;;;;;;;4.50;1.90;;;33.20;74.10;;;;;;5015276;28;20083;-84
2023/08/21 12:22:39;;;;;;;6.47;1.83;;;33.20;75.80;;;;;;5017375;28;22049;-83
2023/08/21 12:25:06;;;;;;;5.57;2.28;;;33.20;73.90;;;;;;4988340;28;20042;-83
2023/08/21 12:27:31;;;;;;;3.58;1.73;;;33.20;75.20;;;;;;4988980;28;20022;-84
2023/08/21 12:29:57;;;;;;;5.53;2.00;;;33.30;73.50;;;;;;5014984;28;20033;-84
2023/08/21 12:32:22;;;;;;;4.07;1.90;;;33.40;73.10;;;;;;5016993;28;20038;-85
2023/08/21 12:34:48;;;;;;;4.13;2.10;;;33.30;72.40;;;;;;5014281;28;20402;-84
2023/08/21 12:37:13;;;;;;;5.57;2.58;;;33.30;74.00;;;;;;5013033;28;20157;-85
2023/08/21 12:39:39;;;;;;;5.70;2.20;;;33.40;72.60;;;;;;5013816;28;20325;-85
2023/08/21 12:42:05;;;;;;;1.77;1.30;;;33.40;72.60;;;;;;5001927;28;20079;-85